sensor_id;sensor_type;location;lat;lon;timestamp;pressure;altitude;pressure_sealevel;temperature;humidity
29215;BME280;16252;49.816;7.964;2023-05-16T00:01:03;99821.44;;;16.96;48.05
29215;BME280;16252;49.816;7.964;2023-05-16T00:03:29;99789.78;;;16.80;47.98
29215;BME280;16252;49.816;7.964;2023-05-16T00:05:55;99789.94;;;16.78;48.11
29215;BME280;16252;49.816;7.964;2023-05-16T00:08:20;99817.03;;;16.95;48.37
29215;BME280;16252;49.816;7.964;2023-05-16T00:10:46;99793.50;;;16.79;48.13
29215;BME280;16252;49.816;7.964;2023-05-16T00:13:11;99817.38;;;16.92;48.43
29215;BME280;16252;49.816;7.964;2023-05-16T00:15:37;99803.66;;;16.85;48.27
29215;BME280;16252;49.816;7.964;2023-05-16T00:18:02;99804.69;;;16.84;48.55
29215;BME280;16252;49.816;7.964;2023-05-16T00:20:28;99803.50;;;16.86;48.56
29215;BME280;16252;49.816;7.964;2023-05-16T00:22:54;99794.72;;;16.84;48.68
29215;BME280;16252;49.816;7.964;2023-05-16T00:25:19;99823.66;;;17.00;48.64
29215;BME280;16252;49.816;7.964;2023-05-16T00:27:45;99806.03;;;16.88;48.73
29215;BME280;16252;49.816;7.964;2023-05-16T00:30:11;99792.78;;;16.77;48.69
29215;BME280;16252;49.816;7.964;2023-05-16T00:32:37;99830.38;;;16.96;49.03
29215;BME280;16252;49.816;7.964;2023-05-16T00:35:02;99801.63;;;16.79;48.87
29215;BME280;16252;49.816;7.964;2023-05-16T00:37:28;99785.13;;;16.64;48.98
29215;BME280;16252;49.816;7.964;2023-05-16T00:39:53;99813.25;;;16.79;49.19
29215;BME280;16252;49.816;7.964;2023-05-16T00:42:19;99809.31;;;16.74;49.17
29215;BME280;16252;49.816;7.964;2023-05-16T00:44:45;99791.69;;;16.61;49.15
29215;BME280;16252;49.816;7.964;2023-05-16T00:47:11;99808.78;;;16.70;49.20
29215;BME280;16252;49.816;7.964;2023-05-16T00:49:36;99815.91;;;16.71;49.29
29215;BME280;16252;49.816;7.964;2023-05-16T00:52:02;99816.19;;;16.68;49.29
29215;BME280;16252;49.816;7.964;2023-05-16T00:54:29;99842.25;;;16.77;49.44
29215;BME280;16252;49.816;7.964;2023-05-16T00:56:55;99828.16;;;16.65;49.44
29215;BME280;16252;49.816;7.964;2023-05-16T00:59:21;99834.47;;;16.74;49.38
29215;BME280;16252;49.816;7.964;2023-05-16T01:01:47;99811.94;;;16.57;49.35
29215;BME280;16252;49.816;7.964;2023-05-16T01:04:13;99821.19;;;16.55;49.83
29215;BME280;16252;49.816;7.964;2023-05-16T01:06:38;99795.78;;;16.39;49.82
29215;BME280;16252;49.816;7.964;2023-05-16T01:09:04;99817.28;;;16.49;49.68
29215;BME280;16252;49.816;7.964;2023-05-16T01:11:40;99823.22;;;16.53;49.86
29215;BME280;16252;49.816;7.964;2023-05-16T01:24:03;99859.13;;;16.71;49.24
29215;BME280;16252;49.816;7.964;2023-05-16T01:28:31;99815.34;;;16.33;49.77
29215;BME280;16252;49.816;7.964;2023-05-16T01:30:56;99816.00;;;16.35;49.69
29215;BME280;16252;49.816;7.964;2023-05-16T01:33:21;99839.22;;;16.46;49.73
29215;BME280;16252;49.816;7.964;2023-05-16T01:36:02;99841.78;;;16.56;49.80
29215;BME280;16252;49.816;7.964;2023-05-16T01:41:24;99845.47;;;16.46;49.44
29215;BME280;16252;49.816;7.964;2023-05-16T01:44:00;99826.75;;;16.27;50.05
29215;BME280;16252;49.816;7.964;2023-05-16T01:46:30;99829.09;;;16.22;50.04
29215;BME280;16252;49.816;7.964;2023-05-16T01:49:14;99842.38;;;16.41;49.79
29215;BME280;16252;49.816;7.964;2023-05-16T01:51:44;99828.09;;;16.23;50.07
29215;BME280;16252;49.816;7.964;2023-05-16T01:54:16;99825.31;;;16.15;50.06
29215;BME280;16252;49.816;7.964;2023-05-16T01:56:49;99845.13;;;16.23;50.19
29215;BME280;16252;49.816;7.964;2023-05-16T01:59:15;99827.63;;;16.10;50.25
29215;BME280;16252;49.816;7.964;2023-05-16T02:01:41;99826.09;;;16.07;50.11
29215;BME280;16252;49.816;7.964;2023-05-16T02:04:06;99832.88;;;16.11;50.29
29215;BME280;16252;49.816;7.964;2023-05-16T02:06:31;99809.72;;;16.00;50.30
29215;BME280;16252;49.816;7.964;2023-05-16T02:08:57;99842.22;;;16.17;50.06
29215;BME280;16252;49.816;7.964;2023-05-16T02:11:22;99839.13;;;16.12;50.20
29215;BME280;16252;49.816;7.964;2023-05-16T02:13:47;99810.31;;;15.94;50.25
29215;BME280;16252;49.816;7.964;2023-05-16T02:16:13;99832.88;;;16.11;50.39
29215;BME280;16252;49.816;7.964;2023-05-16T02:18:38;99824.66;;;15.95;50.30
29215;BME280;16252;49.816;7.964;2023-05-16T02:21:03;99844.47;;;16.03;50.35
29215;BME280;16252;49.816;7.964;2023-05-16T02:23:28;99833.06;;;15.92;50.46
29215;BME280;16252;49.816;7.964;2023-05-16T02:25:54;99857.78;;;16.05;50.59
29215;BME280;16252;49.816;7.964;2023-05-16T02:28:19;99853.03;;;15.99;50.54
29215;BME280;16252;49.816;7.964;2023-05-16T02:30:44;99842.69;;;15.94;50.85
29215;BME280;16252;49.816;7.964;2023-05-16T02:33:10;99850.19;;;16.00;50.72
29215;BME280;16252;49.816;7.964;2023-05-16T02:35:35;99842.38;;;15.97;50.77
29215;BME280;16252;49.816;7.964;2023-05-16T02:38:00;99840.31;;;15.91;50.85
29215;BME280;16252;49.816;7.964;2023-05-16T02:40:26;99854.19;;;15.96;50.58
29215;BME280;16252;49.816;7.964;2023-05-16T02:42:51;99843.84;;;15.92;50.76
29215;BME280;16252;49.816;7.964;2023-05-16T02:45:16;99874.28;;;16.02;50.62
29215;BME280;16252;49.816;7.964;2023-05-16T02:47:42;99844.16;;;15.89;50.88
29215;BME280;16252;49.816;7.964;2023-05-16T02:50:07;99852.97;;;15.91;50.82
29215;BME280;16252;49.816;7.964;2023-05-16T02:52:32;99847.88;;;15.88;50.83
29215;BME280;16252;49.816;7.964;2023-05-16T02:54:58;99863.97;;;15.97;50.90
29215;BME280;16252;49.816;7.964;2023-05-16T02:57:23;99849.56;;;15.89;51.07
29215;BME280;16252;49.816;7.964;2023-05-16T02:59:48;99821.31;;;15.75;50.84
29215;BME280;16252;49.816;7.964;2023-05-16T03:02:14;99867.69;;;15.96;50.89
29215;BME280;16252;49.816;7.964;2023-05-16T03:04:39;99854.13;;;15.88;50.97
29215;BME280;16252;49.816;7.964;2023-05-16T03:07:04;99848.66;;;15.80;50.95
29215;BME280;16252;49.816;7.964;2023-05-16T03:09:29;99857.13;;;15.85;51.13
29215;BME280;16252;49.816;7.964;2023-05-16T03:11:55;99855.41;;;15.84;51.18
29215;BME280;16252;49.816;7.964;2023-05-16T03:14:20;99844.09;;;15.80;51.24
29215;BME280;16252;49.816;7.964;2023-05-16T03:16:45;99862.53;;;15.85;51.33
29215;BME280;16252;49.816;7.964;2023-05-16T03:19:11;99817.09;;;15.63;50.99
29215;BME280;16252;49.816;7.964;2023-05-16T03:21:36;99858.81;;;15.86;51.09
29215;BME280;16252;49.816;7.964;2023-05-16T03:24:02;99841.03;;;15.75;50.94
29215;BME280;16252;49.816;7.964;2023-05-16T03:26:30;99855.72;;;15.81;50.85
29215;BME280;16252;49.816;7.964;2023-05-16T03:28:55;99841.34;;;15.72;51.19
29215;BME280;16252;49.816;7.964;2023-05-16T03:31:21;99826.94;;;15.54;51.24
29215;BME280;16252;49.816;7.964;2023-05-16T03:33:46;99860.22;;;15.72;51.01
29215;BME280;16252;49.816;7.964;2023-05-16T03:36:11;99866.84;;;15.78;51.26
29215;BME280;16252;49.816;7.964;2023-05-16T03:38:37;99854.16;;;15.60;51.15
29215;BME280;16252;49.816;7.964;2023-05-16T03:41:02;99868.31;;;15.72;51.24
29215;BME280;16252;49.816;7.964;2023-05-16T03:43:28;99824.31;;;15.44;51.01
29215;BME280;16252;49.816;7.964;2023-05-16T03:45:53;99865.34;;;15.66;51.30
29215;BME280;16252;49.816;7.964;2023-05-16T03:48:18;99882.22;;;15.68;51.04
29215;BME280;16252;49.816;7.964;2023-05-16T03:50:44;99873.44;;;15.66;51.20
29215;BME280;16252;49.816;7.964;2023-05-16T03:53:09;99874.41;;;15.65;51.10
29215;BME280;16252;49.816;7.964;2023-05-16T03:55:36;99899.03;;;15.79;51.18
29215;BME280;16252;49.816;7.964;2023-05-16T03:58:01;99863.84;;;15.53;51.00
29215;BME280;16252;49.816;7.964;2023-05-16T04:00:26;99864.38;;;15.57;51.23
29215;BME280;16252;49.816;7.964;2023-05-16T04:02:52;99871.03;;;15.63;51.03
29215;BME280;16252;49.816;7.964;2023-05-16T04:05:17;99849.44;;;15.45;50.97
29215;BME280;16252;49.816;7.964;2023-05-16T04:07:42;99826.84;;;15.28;50.71
29215;BME280;16252;49.816;7.964;2023-05-16T04:10:08;99884.97;;;15.58;50.76
29215;BME280;16252;49.816;7.964;2023-05-16T04:12:34;99897.13;;;15.62;51.05
29215;BME280;16252;49.816;7.964;2023-05-16T04:15:01;99901.38;;;15.65;50.76
29215;BME280;16252;49.816;7.964;2023-05-16T04:17:26;99886.53;;;15.60;51.04
29215;BME280;16252;49.816;7.964;2023-05-16T04:19:51;99897.84;;;15.64;50.83
29215;BME280;16252;49.816;7.964;2023-05-16T04:22:19;99881.44;;;15.57;50.92
29215;BME280;16252;49.816;7.964;2023-05-16T04:24:44;99908.91;;;15.71;50.82
29215;BME280;16252;49.816;7.964;2023-05-16T04:27:10;99889.75;;;15.64;50.64
29215;BME280;16252;49.816;7.964;2023-05-16T04:29:36;99893.28;;;15.65;50.56
29215;BME280;16252;49.816;7.964;2023-05-16T04:32:01;99857.16;;;15.39;50.53
29215;BME280;16252;49.816;7.964;2023-05-16T04:34:27;99897.84;;;15.64;50.59
29215;BME280;16252;49.816;7.964;2023-05-16T04:36:53;99923.31;;;15.79;50.72
29215;BME280;16252;49.816;7.964;2023-05-16T04:39:19;99879.19;;;15.53;50.57
29215;BME280;16252;49.816;7.964;2023-05-16T04:41:44;99887.41;;;15.51;50.52
29215;BME280;16252;49.816;7.964;2023-05-16T04:44:10;99891.13;;;15.50;50.54
29215;BME280;16252;49.816;7.964;2023-05-16T04:46:35;99898.06;;;15.53;50.55
29215;BME280;16252;49.816;7.964;2023-05-16T04:49:01;99937.81;;;15.78;50.43
29215;BME280;16252;49.816;7.964;2023-05-16T04:51:26;99921.81;;;15.67;50.48
29215;BME280;16252;49.816;7.964;2023-05-16T04:53:52;99918.44;;;15.65;50.55
29215;BME280;16252;49.816;7.964;2023-05-16T04:56:17;99912.16;;;15.65;50.56
29215;BME280;16252;49.816;7.964;2023-05-16T04:58:43;99916.25;;;15.69;50.58
29215;BME280;16252;49.816;7.964;2023-05-16T05:01:08;99919.84;;;15.69;50.47
29215;BME280;16252;49.816;7.964;2023-05-16T05:03:33;99922.53;;;15.69;50.58
29215;BME280;16252;49.816;7.964;2023-05-16T05:05:59;99903.00;;;15.57;50.66
29215;BME280;16252;49.816;7.964;2023-05-16T05:08:24;99939.69;;;15.78;50.71
29215;BME280;16252;49.816;7.964;2023-05-16T05:10:50;99913.19;;;15.64;50.73
29215;BME280;16252;49.816;7.964;2023-05-16T05:13:15;99916.00;;;15.62;50.63
29215;BME280;16252;49.816;7.964;2023-05-16T05:15:40;99912.78;;;15.58;50.63
29215;BME280;16252;49.816;7.964;2023-05-16T05:18:06;99939.41;;;15.71;50.80
29215;BME280;16252;49.816;7.964;2023-05-16T05:20:31;99939.84;;;15.67;50.85
29215;BME280;16252;49.816;7.964;2023-05-16T05:22:56;99927.81;;;15.61;50.94
29215;BME280;16252;49.816;7.964;2023-05-16T05:25:21;99947.19;;;15.74;50.81
29215;BME280;16252;49.816;7.964;2023-05-16T05:27:47;99905.50;;;15.41;50.77
29215;BME280;16252;49.816;7.964;2023-05-16T05:30:12;99893.78;;;15.32;50.79
29215;BME280;16252;49.816;7.964;2023-05-16T05:32:37;99893.84;;;15.23;50.76
29215;BME280;16252;49.816;7.964;2023-05-16T05:35:03;99950.41;;;15.60;50.60
29215;BME280;16252;49.816;7.964;2023-05-16T05:37:29;99976.34;;;15.71;50.91
29215;BME280;16252;49.816;7.964;2023-05-16T05:39:54;99956.78;;;15.59;50.53
29215;BME280;16252;49.816;7.964;2023-05-16T05:42:20;99938.03;;;15.39;50.30
29215;BME280;16252;49.816;7.964;2023-05-16T05:44:45;99952.13;;;15.51;50.25
29215;BME280;16252;49.816;7.964;2023-05-16T05:47:11;99960.66;;;15.47;50.13
29215;BME280;16252;49.816;7.964;2023-05-16T05:49:36;99959.13;;;15.44;50.10
29215;BME280;16252;49.816;7.964;2023-05-16T05:52:02;99920.78;;;15.23;50.17
29215;BME280;16252;49.816;7.964;2023-05-16T05:54:27;99974.84;;;15.49;50.01
29215;BME280;16252;49.816;7.964;2023-05-16T05:56:52;99971.44;;;15.47;49.89
29215;BME280;16252;49.816;7.964;2023-05-16T05:59:18;100000.75;;;15.59;50.05
29215;BME280;16252;49.816;7.964;2023-05-16T06:01:43;99943.84;;;15.35;49.96
29215;BME280;16252;49.816;7.964;2023-05-16T06:04:09;99967.59;;;15.49;49.67
29215;BME280;16252;49.816;7.964;2023-05-16T06:06:36;99987.59;;;15.56;49.86
29215;BME280;16252;49.816;7.964;2023-05-16T06:09:02;100009.25;;;15.65;49.83
29215;BME280;16252;49.816;7.964;2023-05-16T06:11:28;100010.97;;;15.66;49.78
29215;BME280;16252;49.816;7.964;2023-05-16T06:13:53;99967.50;;;15.41;49.95
29215;BME280;16252;49.816;7.964;2023-05-16T06:16:18;100007.97;;;15.69;50.10
29215;BME280;16252;49.816;7.964;2023-05-16T06:18:47;99988.72;;;15.54;50.07
29215;BME280;16252;49.816;7.964;2023-05-16T06:21:13;100000.22;;;15.56;50.00
29215;BME280;16252;49.816;7.964;2023-05-16T06:23:38;99998.38;;;15.56;49.85
29215;BME280;16252;49.816;7.964;2023-05-16T06:26:03;99993.28;;;15.53;50.02
29215;BME280;16252;49.816;7.964;2023-05-16T06:28:28;100012.25;;;15.61;50.17
29215;BME280;16252;49.816;7.964;2023-05-16T06:30:54;100008.84;;;15.59;49.77
29215;BME280;16252;49.816;7.964;2023-05-16T06:33:20;99990.78;;;15.42;49.86
29215;BME280;16252;49.816;7.964;2023-05-16T06:35:45;99971.28;;;15.21;50.21
29215;BME280;16252;49.816;7.964;2023-05-16T06:38:12;100022.09;;;15.53;50.06
29215;BME280;16252;49.816;7.964;2023-05-16T06:40:38;100024.63;;;15.54;50.01
29215;BME280;16252;49.816;7.964;2023-05-16T06:43:03;100027.91;;;15.58;50.28
29215;BME280;16252;49.816;7.964;2023-05-16T06:45:28;100007.66;;;15.44;50.11
29215;BME280;16252;49.816;7.964;2023-05-16T06:47:54;99989.28;;;15.30;50.06
29215;BME280;16252;49.816;7.964;2023-05-16T06:50:20;99997.88;;;15.43;50.32
29215;BME280;16252;49.816;7.964;2023-05-16T06:52:45;100019.13;;;15.46;50.25
29215;BME280;16252;49.816;7.964;2023-05-16T06:55:11;99981.94;;;15.22;50.02
29215;BME280;16252;49.816;7.964;2023-05-16T06:57:36;99976.28;;;15.15;50.41
29215;BME280;16252;49.816;7.964;2023-05-16T07:00:02;100036.16;;;15.47;50.46
29215;BME280;16252;49.816;7.964;2023-05-16T07:02:27;100045.66;;;15.51;50.37
29215;BME280;16252;49.816;7.964;2023-05-16T07:04:53;100054.06;;;15.48;50.57
29215;BME280;16252;49.816;7.964;2023-05-16T07:07:18;100057.59;;;15.48;50.35
29215;BME280;16252;49.816;7.964;2023-05-16T07:09:44;100044.41;;;15.45;50.47
29215;BME280;16252;49.816;7.964;2023-05-16T07:12:09;100039.47;;;15.41;50.20
29215;BME280;16252;49.816;7.964;2023-05-16T07:14:34;100047.13;;;15.45;50.32
29215;BME280;16252;49.816;7.964;2023-05-16T07:17:00;100079.56;;;15.53;50.53
29215;BME280;16252;49.816;7.964;2023-05-16T07:19:26;99999.28;;;15.00;50.19
29215;BME280;16252;49.816;7.964;2023-05-16T07:21:51;100008.94;;;15.03;50.32
29215;BME280;16252;49.816;7.964;2023-05-16T07:24:16;100013.78;;;14.99;50.24
29215;BME280;16252;49.816;7.964;2023-05-16T07:26:42;100034.31;;;15.10;50.13
29215;BME280;16252;49.816;7.964;2023-05-16T07:29:07;100047.63;;;15.11;50.28
29215;BME280;16252;49.816;7.964;2023-05-16T07:31:32;100039.84;;;14.99;50.37
29215;BME280;16252;49.816;7.964;2023-05-16T07:33:58;100077.13;;;15.13;50.23
29215;BME280;16252;49.816;7.964;2023-05-16T07:36:23;100084.78;;;15.17;50.24
29215;BME280;16252;49.816;7.964;2023-05-16T07:38:48;100050.78;;;14.87;50.17
29215;BME280;16252;49.816;7.964;2023-05-16T07:41:14;100079.13;;;15.01;50.39
29215;BME280;16252;49.816;7.964;2023-05-16T07:43:39;100052.22;;;14.82;50.49
29215;BME280;16252;49.816;7.964;2023-05-16T07:46:04;100099.53;;;15.04;50.38
29215;BME280;16252;49.816;7.964;2023-05-16T07:48:29;100123.94;;;15.12;50.45
29215;BME280;16252;49.816;7.964;2023-05-16T07:50:55;100125.94;;;15.10;50.29
29215;BME280;16252;49.816;7.964;2023-05-16T07:53:20;100134.13;;;15.08;50.50
29215;BME280;16252;49.816;7.964;2023-05-16T07:55:47;100098.28;;;14.88;50.58
29215;BME280;16252;49.816;7.964;2023-05-16T07:58:12;100068.94;;;14.66;50.51
29215;BME280;16252;49.816;7.964;2023-05-16T08:00:38;100105.66;;;14.86;50.57
29215;BME280;16252;49.816;7.964;2023-05-16T08:03:03;100104.66;;;14.87;50.76
29215;BME280;16252;49.816;7.964;2023-05-16T08:05:29;100117.13;;;14.88;50.56
29215;BME280;16252;49.816;7.964;2023-05-16T08:07:54;100118.00;;;14.89;50.69
29215;BME280;16252;49.816;7.964;2023-05-16T08:10:19;100115.56;;;14.86;50.59
29215;BME280;16252;49.816;7.964;2023-05-16T08:12:44;100095.31;;;14.72;50.45
29215;BME280;16252;49.816;7.964;2023-05-16T08:15:10;100117.56;;;14.84;50.33
29215;BME280;16252;49.816;7.964;2023-05-16T08:17:35;100131.31;;;14.81;50.06
29215;BME280;16252;49.816;7.964;2023-05-16T08:20:02;100127.34;;;14.85;50.23
29215;BME280;16252;49.816;7.964;2023-05-16T08:22:28;100141.53;;;14.87;50.21
29215;BME280;16252;49.816;7.964;2023-05-16T08:24:53;100121.25;;;14.83;50.23
29215;BME280;16252;49.816;7.964;2023-05-16T08:27:22;100093.19;;;14.56;50.03
29215;BME280;16252;49.816;7.964;2023-05-16T08:29:47;100118.00;;;14.69;50.29
29215;BME280;16252;49.816;7.964;2023-05-16T08:32:13;100130.16;;;14.83;50.07
29215;BME280;16252;49.816;7.964;2023-05-16T08:34:38;100120.81;;;14.78;50.13
29215;BME280;16252;49.816;7.964;2023-05-16T08:37:03;100128.91;;;14.78;50.05
29215;BME280;16252;49.816;7.964;2023-05-16T08:39:29;100134.72;;;14.83;50.15
29215;BME280;16252;49.816;7.964;2023-05-16T08:41:54;100160.53;;;15.05;50.19
29215;BME280;16252;49.816;7.964;2023-05-16T08:44:20;100158.56;;;14.97;49.95
29215;BME280;16252;49.816;7.964;2023-05-16T08:46:53;100162.66;;;15.11;50.38
29215;BME280;16252;49.816;7.964;2023-05-16T08:49:20;100148.06;;;14.94;50.51
29215;BME280;16252;49.816;7.964;2023-05-16T08:51:46;100148.63;;;14.98;50.43
29215;BME280;16252;49.816;7.964;2023-05-16T08:54:13;100174.69;;;15.16;50.44
29215;BME280;16252;49.816;7.964;2023-05-16T08:56:43;100156.53;;;15.09;50.88
29215;BME280;16252;49.816;7.964;2023-05-16T08:59:09;100132.03;;;14.92;50.31
29215;BME280;16252;49.816;7.964;2023-05-16T09:01:36;100156.41;;;15.01;50.59
29215;BME280;16252;49.816;7.964;2023-05-16T09:04:03;100107.47;;;14.76;50.61
29215;BME280;16252;49.816;7.964;2023-05-16T09:06:29;100165.75;;;15.06;50.47
29215;BME280;16252;49.816;7.964;2023-05-16T09:08:55;100159.81;;;14.93;50.37
29215;BME280;16252;49.816;7.964;2023-05-16T09:11:20;100161.38;;;14.86;50.38
29215;BME280;16252;49.816;7.964;2023-05-16T09:13:47;100161.09;;;14.79;50.58
29215;BME280;16252;49.816;7.964;2023-05-16T09:16:15;100189.16;;;14.96;50.51
29215;BME280;16252;49.816;7.964;2023-05-16T09:18:43;100174.00;;;14.85;50.13
29215;BME280;16252;49.816;7.964;2023-05-16T09:21:09;100125.84;;;14.42;50.19
29215;BME280;16252;49.816;7.964;2023-05-16T09:23:34;100194.81;;;14.83;50.27
29215;BME280;16252;49.816;7.964;2023-05-16T09:26:01;100136.63;;;14.42;50.58
29215;BME280;16252;49.816;7.964;2023-05-16T09:28:26;100196.13;;;14.79;50.30
29215;BME280;16252;49.816;7.964;2023-05-16T09:30:52;100200.66;;;14.79;50.37
29215;BME280;16252;49.816;7.964;2023-05-16T09:33:24;100173.38;;;14.62;50.60
29215;BME280;16252;49.816;7.964;2023-05-16T09:35:59;100195.81;;;14.82;50.53
29215;BME280;16252;49.816;7.964;2023-05-16T09:38:26;100185.72;;;14.65;50.53
29215;BME280;16252;49.816;7.964;2023-05-16T09:40:55;100184.47;;;14.69;50.48
29215;BME280;16252;49.816;7.964;2023-05-16T09:43:23;100205.34;;;14.86;50.42
29215;BME280;16252;49.816;7.964;2023-05-16T09:45:49;100185.75;;;14.74;50.52
29215;BME280;16252;49.816;7.964;2023-05-16T09:48:15;100217.53;;;15.00;50.31
29215;BME280;16252;49.816;7.964;2023-05-16T09:50:47;100215.81;;;15.09;49.85
29215;BME280;16252;49.816;7.964;2023-05-16T09:53:14;100224.91;;;15.08;49.81
29215;BME280;16252;49.816;7.964;2023-05-16T09:55:39;100196.56;;;14.94;49.45
29215;BME280;16252;49.816;7.964;2023-05-16T09:58:04;100208.44;;;15.01;49.49
29215;BME280;16252;49.816;7.964;2023-05-16T10:00:31;100209.31;;;15.02;49.00
29215;BME280;16252;49.816;7.964;2023-05-16T10:02:57;100218.81;;;15.15;48.96
29215;BME280;16252;49.816;7.964;2023-05-16T10:05:25;100190.47;;;15.02;48.90
29215;BME280;16252;49.816;7.964;2023-05-16T10:07:54;100214.44;;;15.14;48.98
29215;BME280;16252;49.816;7.964;2023-05-16T10:10:20;100219.97;;;15.23;48.97
29215;BME280;16252;49.816;7.964;2023-05-16T10:12:46;100183.78;;;15.15;48.30
29215;BME280;16252;49.816;7.964;2023-05-16T10:15:12;100168.03;;;15.01;48.01
29215;BME280;16252;49.816;7.964;2023-05-16T10:17:39;100221.09;;;15.30;47.65
29215;BME280;16252;49.816;7.964;2023-05-16T10:20:06;100202.78;;;15.14;47.70
29215;BME280;16252;49.816;7.964;2023-05-16T10:22:34;100222.97;;;15.29;47.57
29215;BME280;16252;49.816;7.964;2023-05-16T10:25:22;100222.25;;;15.37;47.63
29215;BME280;16252;49.816;7.964;2023-05-16T10:27:49;100222.78;;;15.31;47.17
29215;BME280;16252;49.816;7.964;2023-05-16T10:30:16;100225.66;;;15.29;47.06
29215;BME280;16252;49.816;7.964;2023-05-16T10:32:42;100219.53;;;15.27;47.34
29215;BME280;16252;49.816;7.964;2023-05-16T10:35:08;100180.81;;;14.99;47.00
29215;BME280;16252;49.816;7.964;2023-05-16T10:37:34;100203.22;;;15.09;46.88
29215;BME280;16252;49.816;7.964;2023-05-16T10:40:01;100203.66;;;15.14;46.81
29215;BME280;16252;49.816;7.964;2023-05-16T10:42:34;100220.94;;;15.31;46.36
29215;BME280;16252;49.816;7.964;2023-05-16T10:45:16;100215.28;;;15.25;46.51
29215;BME280;16252;49.816;7.964;2023-05-16T10:53:20;100215.56;;;15.31;46.53
29215;BME280;16252;49.816;7.964;2023-05-16T11:01:25;100219.50;;;15.56;45.80
29215;BME280;16252;49.816;7.964;2023-05-16T11:06:23;100192.00;;;15.43;45.71
29215;BME280;16252;49.816;7.964;2023-05-16T11:11:42;100230.59;;;15.73;45.75
29215;BME280;16252;49.816;7.964;2023-05-16T11:14:08;100202.75;;;15.63;45.97
29215;BME280;16252;49.816;7.964;2023-05-16T11:16:34;100188.28;;;15.64;45.82
29215;BME280;16252;49.816;7.964;2023-05-16T11:19:06;100209.25;;;15.89;45.45
29215;BME280;16252;49.816;7.964;2023-05-16T11:22:10;100217.31;;;16.09;45.31
29215;BME280;16252;49.816;7.964;2023-05-16T11:24:37;100185.97;;;15.88;45.38
29215;BME280;16252;49.816;7.964;2023-05-16T11:27:04;100224.22;;;16.21;45.58
29215;BME280;16252;49.816;7.964;2023-05-16T11:29:36;100183.59;;;16.13;45.46
29215;BME280;16252;49.816;7.964;2023-05-16T11:32:03;100190.63;;;16.33;45.38
29215;BME280;16252;49.816;7.964;2023-05-16T11:34:29;100204.88;;;16.53;45.36
29215;BME280;16252;49.816;7.964;2023-05-16T11:36:55;100187.31;;;16.67;45.05
29215;BME280;16252;49.816;7.964;2023-05-16T11:39:21;100196.13;;;16.97;45.07
29215;BME280;16252;49.816;7.964;2023-05-16T11:41:49;100184.66;;;17.21;44.22
29215;BME280;16252;49.816;7.964;2023-05-16T11:44:14;100163.97;;;17.29;44.10
29215;BME280;16252;49.816;7.964;2023-05-16T11:46:40;100182.69;;;17.49;43.27
29215;BME280;16252;49.816;7.964;2023-05-16T11:49:06;100183.19;;;17.70;43.05
29215;BME280;16252;49.816;7.964;2023-05-16T11:51:33;100184.25;;;17.95;43.29
29215;BME280;16252;49.816;7.964;2023-05-16T11:53:59;100179.38;;;18.07;43.24
29215;BME280;16252;49.816;7.964;2023-05-16T11:56:25;100189.66;;;18.38;42.74
29215;BME280;16252;49.816;7.964;2023-05-16T11:58:51;100178.19;;;18.44;42.28
29215;BME280;16252;49.816;7.964;2023-05-16T12:01:17;100161.47;;;18.57;42.19
29215;BME280;16252;49.816;7.964;2023-05-16T12:03:42;100181.34;;;18.74;42.00
29215;BME280;16252;49.816;7.964;2023-05-16T12:06:07;100192.09;;;18.92;41.38
29215;BME280;16252;49.816;7.964;2023-05-16T12:08:32;100144.63;;;18.79;41.03
29215;BME280;16252;49.816;7.964;2023-05-16T12:10:59;100126.84;;;18.85;40.03
29215;BME280;16252;49.816;7.964;2023-05-16T12:13:24;100158.72;;;19.08;39.54
29215;BME280;16252;49.816;7.964;2023-05-16T12:15:50;100161.44;;;19.24;39.16
29215;BME280;16252;49.816;7.964;2023-05-16T12:18:16;100145.34;;;19.22;39.41
29215;BME280;16252;49.816;7.964;2023-05-16T12:20:42;100193.16;;;19.48;39.29
29215;BME280;16252;49.816;7.964;2023-05-16T12:23:11;100184.66;;;19.51;37.55
29215;BME280;16252;49.816;7.964;2023-05-16T12:25:37;100191.28;;;19.48;37.78
29215;BME280;16252;49.816;7.964;2023-05-16T12:28:08;100178.72;;;19.39;38.22
29215;BME280;16252;49.816;7.964;2023-05-16T12:30:34;100161.44;;;19.32;38.23
29215;BME280;16252;49.816;7.964;2023-05-16T12:33:01;100157.00;;;19.39;38.18
29215;BME280;16252;49.816;7.964;2023-05-16T12:35:31;100162.97;;;19.43;38.24
29215;BME280;16252;49.816;7.964;2023-05-16T12:37:57;100188.38;;;19.75;40.39
29215;BME280;16252;49.816;7.964;2023-05-16T12:40:22;100178.72;;;19.56;38.31
29215;BME280;16252;49.816;7.964;2023-05-16T12:42:54;100166.50;;;19.52;37.78
29215;BME280;16252;49.816;7.964;2023-05-16T12:45:21;100164.81;;;19.59;38.17
29215;BME280;16252;49.816;7.964;2023-05-16T12:47:47;100173.50;;;19.70;38.22
29215;BME280;16252;49.816;7.964;2023-05-16T12:50:13;100172.44;;;19.72;37.39
29215;BME280;16252;49.816;7.964;2023-05-16T12:52:50;100185.81;;;19.89;35.68
29215;BME280;16252;49.816;7.964;2023-05-16T12:55:16;100176.00;;;19.72;37.19
29215;BME280;16252;49.816;7.964;2023-05-16T12:57:42;100158.72;;;19.65;37.18
29215;BME280;16252;49.816;7.964;2023-05-16T13:00:12;100163.97;;;19.58;37.41
29215;BME280;16252;49.816;7.964;2023-05-16T13:02:38;100180.09;;;19.68;37.04
29215;BME280;16252;49.816;7.964;2023-05-16T13:05:03;100183.81;;;19.67;36.59
29215;BME280;16252;49.816;7.964;2023-05-16T13:07:29;100172.66;;;19.70;36.74
29215;BME280;16252;49.816;7.964;2023-05-16T13:09:55;100171.41;;;19.64;37.20
29215;BME280;16252;49.816;7.964;2023-05-16T13:12:20;100165.69;;;19.67;36.79
29215;BME280;16252;49.816;7.964;2023-05-16T13:14:46;100189.59;;;19.72;36.14
29215;BME280;16252;49.816;7.964;2023-05-16T13:17:11;100146.81;;;19.49;36.04
29215;BME280;16252;49.816;7.964;2023-05-16T13:19:37;100168.22;;;19.61;35.68
29215;BME280;16252;49.816;7.964;2023-05-16T13:22:02;100180.59;;;19.63;35.91